<?xml version="1.0" encoding="UTF-8" standalone="no" ?>
<gpx xmlns="http://www.topografix.com/GPX/1/1" xmlns:xsi="http://www.w3.org/2001/XMLSchema-instance" xsi:schemaLocation="http://www.topografix.com/GPX/1/1 http://www.topografix.com/GPX/1/1/gpx.xsd" version="1.1" creator="VisuGPX - https://www.visugpx.com">
  <metadata>
    <name>Urbes-Drumont</name>
    <desc><![CDATA[parcours sans difficultés mais pas pour les débutants.]]></desc>
  </metadata>
  <trk>
    <name><![CDATA[9002167-Urbes - Drumont]]></name>
    <trkseg>
      <trkpt lat="47.88225" lon="6.95431">
        <ele>457</ele>
        <time>2018-08-13T09:33:17Z</time>
      </trkpt>
      <trkpt lat="47.88244" lon="6.95453">
        <ele>455</ele>
        <time>2018-08-13T09:34:17Z</time>
      </trkpt>
      <trkpt lat="47.88244" lon="6.95482">
        <ele>455</ele>
        <time>2018-08-13T09:35:17Z</time>
      </trkpt>
      <trkpt lat="47.88285" lon="6.95615">
        <ele>454</ele>
        <time>2018-08-13T09:36:17Z</time>
      </trkpt>
      <trkpt lat="47.88354" lon="6.9558">
        <ele>450</ele>
        <time>2018-08-13T09:37:17Z</time>
      </trkpt>
      <trkpt lat="47.88419" lon="6.95564">
        <ele>449</ele>
        <time>2018-08-13T09:38:17Z</time>
      </trkpt>
      <trkpt lat="47.88445" lon="6.95535">
        <ele>449</ele>
        <time>2018-08-13T09:39:17Z</time>
      </trkpt>
      <trkpt lat="47.88473" lon="6.95523">
        <ele>449</ele>
        <time>2018-08-13T09:40:17Z</time>
      </trkpt>
      <trkpt lat="47.88502" lon="6.95521">
        <ele>449</ele>
        <time>2018-08-13T09:41:17Z</time>
      </trkpt>
      <trkpt lat="47.88543" lon="6.95497">
        <ele>455</ele>
        <time>2018-08-13T09:42:17Z</time>
      </trkpt>
      <trkpt lat="47.88568" lon="6.95494">
        <ele>459</ele>
        <time>2018-08-13T09:43:17Z</time>
      </trkpt>
      <trkpt lat="47.88583" lon="6.95511">
        <ele>459</ele>
        <time>2018-08-13T09:44:17Z</time>
      </trkpt>
      <trkpt lat="47.88589" lon="6.95485">
        <ele>465</ele>
        <time>2018-08-13T09:45:17Z</time>
      </trkpt>
      <trkpt lat="47.88575" lon="6.95434">
        <ele>467</ele>
        <time>2018-08-13T09:46:17Z</time>
      </trkpt>
      <trkpt lat="47.88565" lon="6.95428">
        <ele>465</ele>
        <time>2018-08-13T09:47:17Z</time>
      </trkpt>
      <trkpt lat="47.88564" lon="6.9542">
        <ele>466</ele>
        <time>2018-08-13T09:48:17Z</time>
      </trkpt>
      <trkpt lat="47.88566" lon="6.95413">
        <ele>467</ele>
        <time>2018-08-13T09:49:17Z</time>
      </trkpt>
      <trkpt lat="47.88581" lon="6.95404">
        <ele>473</ele>
        <time>2018-08-13T09:50:17Z</time>
      </trkpt>
      <trkpt lat="47.88584" lon="6.95386">
        <ele>477</ele>
        <time>2018-08-13T09:51:17Z</time>
      </trkpt>
      <trkpt lat="47.88581" lon="6.95359">
        <ele>481</ele>
        <time>2018-08-13T09:52:17Z</time>
      </trkpt>
      <trkpt lat="47.88597" lon="6.95367">
        <ele>489</ele>
        <time>2018-08-13T09:53:17Z</time>
      </trkpt>
      <trkpt lat="47.88609" lon="6.95348">
        <ele>500</ele>
        <time>2018-08-13T09:54:17Z</time>
      </trkpt>
      <trkpt lat="47.88622" lon="6.95372">
        <ele>503</ele>
        <time>2018-08-13T09:55:17Z</time>
      </trkpt>
      <trkpt lat="47.88644" lon="6.95372">
        <ele>516</ele>
        <time>2018-08-13T09:56:17Z</time>
      </trkpt>
      <trkpt lat="47.88638" lon="6.95329">
        <ele>522</ele>
        <time>2018-08-13T09:57:17Z</time>
      </trkpt>
      <trkpt lat="47.88653" lon="6.95333">
        <ele>531</ele>
        <time>2018-08-13T09:58:17Z</time>
      </trkpt>
      <trkpt lat="47.88663" lon="6.95293">
        <ele>543</ele>
        <time>2018-08-13T09:59:17Z</time>
      </trkpt>
      <trkpt lat="47.88677" lon="6.95312">
        <ele>548</ele>
        <time>2018-08-13T10:00:17Z</time>
      </trkpt>
      <trkpt lat="47.88675" lon="6.95372">
        <ele>534</ele>
        <time>2018-08-13T10:01:17Z</time>
      </trkpt>
      <trkpt lat="47.88679" lon="6.95393">
        <ele>532</ele>
        <time>2018-08-13T10:02:17Z</time>
      </trkpt>
      <trkpt lat="47.88691" lon="6.95398">
        <ele>538</ele>
        <time>2018-08-13T10:03:17Z</time>
      </trkpt>
      <trkpt lat="47.88725" lon="6.95396">
        <ele>561</ele>
        <time>2018-08-13T10:04:17Z</time>
      </trkpt>
      <trkpt lat="47.88738" lon="6.95405">
        <ele>567</ele>
        <time>2018-08-13T10:05:17Z</time>
      </trkpt>
      <trkpt lat="47.88757" lon="6.95437">
        <ele>570</ele>
        <time>2018-08-13T10:06:17Z</time>
      </trkpt>
      <trkpt lat="47.88782" lon="6.9549">
        <ele>568</ele>
        <time>2018-08-13T10:07:17Z</time>
      </trkpt>
      <trkpt lat="47.88804" lon="6.95525">
        <ele>569</ele>
        <time>2018-08-13T10:08:17Z</time>
      </trkpt>
      <trkpt lat="47.88886" lon="6.95609">
        <ele>582</ele>
        <time>2018-08-13T10:09:17Z</time>
      </trkpt>
      <trkpt lat="47.8892" lon="6.95661">
        <ele>577</ele>
        <time>2018-08-13T10:10:17Z</time>
      </trkpt>
      <trkpt lat="47.8896" lon="6.95702">
        <ele>585</ele>
        <time>2018-08-13T10:11:17Z</time>
      </trkpt>
      <trkpt lat="47.88959" lon="6.95673">
        <ele>591</ele>
        <time>2018-08-13T10:12:17Z</time>
      </trkpt>
      <trkpt lat="47.88944" lon="6.95624">
        <ele>600</ele>
        <time>2018-08-13T10:13:17Z</time>
      </trkpt>
      <trkpt lat="47.88874" lon="6.95479">
        <ele>619</ele>
        <time>2018-08-13T10:14:17Z</time>
      </trkpt>
      <trkpt lat="47.8891" lon="6.95519">
        <ele>623</ele>
        <time>2018-08-13T10:15:17Z</time>
      </trkpt>
      <trkpt lat="47.88955" lon="6.95525">
        <ele>635</ele>
        <time>2018-08-13T10:16:17Z</time>
      </trkpt>
      <trkpt lat="47.88934" lon="6.95496">
        <ele>639</ele>
        <time>2018-08-13T10:17:17Z</time>
      </trkpt>
      <trkpt lat="47.88975" lon="6.95491">
        <ele>653</ele>
        <time>2018-08-13T10:18:17Z</time>
      </trkpt>
      <trkpt lat="47.88954" lon="6.95477">
        <ele>652</ele>
        <time>2018-08-13T10:19:17Z</time>
      </trkpt>
      <trkpt lat="47.88924" lon="6.95444">
        <ele>655</ele>
        <time>2018-08-13T10:20:17Z</time>
      </trkpt>
      <trkpt lat="47.88908" lon="6.95395">
        <ele>663</ele>
        <time>2018-08-13T10:21:17Z</time>
      </trkpt>
      <trkpt lat="47.88915" lon="6.95407">
        <ele>664</ele>
        <time>2018-08-13T10:22:17Z</time>
      </trkpt>
      <trkpt lat="47.88946" lon="6.95431">
        <ele>668</ele>
        <time>2018-08-13T10:23:17Z</time>
      </trkpt>
      <trkpt lat="47.88975" lon="6.95447">
        <ele>671</ele>
        <time>2018-08-13T10:24:17Z</time>
      </trkpt>
      <trkpt lat="47.89" lon="6.95446">
        <ele>680</ele>
        <time>2018-08-13T10:25:17Z</time>
      </trkpt>
      <trkpt lat="47.88986" lon="6.95427">
        <ele>684</ele>
        <time>2018-08-13T10:26:17Z</time>
      </trkpt>
      <trkpt lat="47.88965" lon="6.954">
        <ele>685</ele>
        <time>2018-08-13T10:27:17Z</time>
      </trkpt>
      <trkpt lat="47.88949" lon="6.95374">
        <ele>686</ele>
        <time>2018-08-13T10:28:17Z</time>
      </trkpt>
      <trkpt lat="47.88934" lon="6.95337">
        <ele>690</ele>
        <time>2018-08-13T10:29:17Z</time>
      </trkpt>
      <trkpt lat="47.88936" lon="6.95278">
        <ele>703</ele>
        <time>2018-08-13T10:30:17Z</time>
      </trkpt>
      <trkpt lat="47.88919" lon="6.95206">
        <ele>706</ele>
        <time>2018-08-13T10:31:17Z</time>
      </trkpt>
      <trkpt lat="47.88949" lon="6.9508">
        <ele>731</ele>
        <time>2018-08-13T10:32:17Z</time>
      </trkpt>
      <trkpt lat="47.88967" lon="6.95039">
        <ele>738</ele>
        <time>2018-08-13T10:33:17Z</time>
      </trkpt>
      <trkpt lat="47.88973" lon="6.9503">
        <ele>741</ele>
        <time>2018-08-13T10:34:17Z</time>
      </trkpt>
      <trkpt lat="47.88979" lon="6.95022">
        <ele>744</ele>
        <time>2018-08-13T10:35:17Z</time>
      </trkpt>
      <trkpt lat="47.88986" lon="6.95011">
        <ele>747</ele>
        <time>2018-08-13T10:36:17Z</time>
      </trkpt>
      <trkpt lat="47.88991" lon="6.95006">
        <ele>749</ele>
        <time>2018-08-13T10:37:17Z</time>
      </trkpt>
      <trkpt lat="47.89022" lon="6.94964">
        <ele>758</ele>
        <time>2018-08-13T10:38:17Z</time>
      </trkpt>
      <trkpt lat="47.89045" lon="6.94945">
        <ele>766</ele>
        <time>2018-08-13T10:39:17Z</time>
      </trkpt>
      <trkpt lat="47.89067" lon="6.94942">
        <ele>776</ele>
        <time>2018-08-13T10:40:17Z</time>
      </trkpt>
      <trkpt lat="47.8906" lon="6.94959">
        <ele>774</ele>
        <time>2018-08-13T10:41:17Z</time>
      </trkpt>
      <trkpt lat="47.89054" lon="6.9499">
        <ele>775</ele>
        <time>2018-08-13T10:42:17Z</time>
      </trkpt>
      <trkpt lat="47.89086" lon="6.94942">
        <ele>784</ele>
        <time>2018-08-13T10:43:17Z</time>
      </trkpt>
      <trkpt lat="47.89112" lon="6.94905">
        <ele>789</ele>
        <time>2018-08-13T10:44:17Z</time>
      </trkpt>
      <trkpt lat="47.89138" lon="6.94846">
        <ele>796</ele>
        <time>2018-08-13T10:45:17Z</time>
      </trkpt>
      <trkpt lat="47.8915" lon="6.94797">
        <ele>803</ele>
        <time>2018-08-13T10:46:17Z</time>
      </trkpt>
      <trkpt lat="47.89161" lon="6.94752">
        <ele>809</ele>
        <time>2018-08-13T10:47:17Z</time>
      </trkpt>
      <trkpt lat="47.89169" lon="6.9471">
        <ele>813</ele>
        <time>2018-08-13T10:48:17Z</time>
      </trkpt>
      <trkpt lat="47.89168" lon="6.94666">
        <ele>816</ele>
        <time>2018-08-13T10:49:17Z</time>
      </trkpt>
      <trkpt lat="47.89165" lon="6.94632">
        <ele>818</ele>
        <time>2018-08-13T10:50:17Z</time>
      </trkpt>
      <trkpt lat="47.89205" lon="6.94644">
        <ele>819</ele>
        <time>2018-08-13T10:51:17Z</time>
      </trkpt>
      <trkpt lat="47.89206" lon="6.94572">
        <ele>824</ele>
        <time>2018-08-13T10:52:17Z</time>
      </trkpt>
      <trkpt lat="47.89199" lon="6.94514">
        <ele>833</ele>
        <time>2018-08-13T10:53:17Z</time>
      </trkpt>
      <trkpt lat="47.89206" lon="6.94333">
        <ele>857</ele>
        <time>2018-08-13T10:54:17Z</time>
      </trkpt>
      <trkpt lat="47.89224" lon="6.94142">
        <ele>892</ele>
        <time>2018-08-13T10:55:17Z</time>
      </trkpt>
      <trkpt lat="47.89249" lon="6.94052">
        <ele>910</ele>
        <time>2018-08-13T10:56:17Z</time>
      </trkpt>
      <trkpt lat="47.89269" lon="6.94089">
        <ele>908</ele>
        <time>2018-08-13T10:57:17Z</time>
      </trkpt>
      <trkpt lat="47.89296" lon="6.94122">
        <ele>904</ele>
        <time>2018-08-13T10:58:17Z</time>
      </trkpt>
      <trkpt lat="47.8932" lon="6.94125">
        <ele>905</ele>
        <time>2018-08-13T10:59:17Z</time>
      </trkpt>
      <trkpt lat="47.89344" lon="6.94109">
        <ele>903</ele>
        <time>2018-08-13T11:00:17Z</time>
      </trkpt>
      <trkpt lat="47.89365" lon="6.94082">
        <ele>901</ele>
        <time>2018-08-13T11:01:17Z</time>
      </trkpt>
      <trkpt lat="47.89398" lon="6.94031">
        <ele>901</ele>
        <time>2018-08-13T11:02:17Z</time>
      </trkpt>
      <trkpt lat="47.89409" lon="6.93999">
        <ele>906</ele>
        <time>2018-08-13T11:03:17Z</time>
      </trkpt>
      <trkpt lat="47.8946" lon="6.93966">
        <ele>905</ele>
        <time>2018-08-13T11:04:17Z</time>
      </trkpt>
      <trkpt lat="47.89537" lon="6.93969">
        <ele>894</ele>
        <time>2018-08-13T11:05:17Z</time>
      </trkpt>
      <trkpt lat="47.89581" lon="6.93938">
        <ele>902</ele>
        <time>2018-08-13T11:06:17Z</time>
      </trkpt>
      <trkpt lat="47.89633" lon="6.93922">
        <ele>910</ele>
        <time>2018-08-13T11:07:17Z</time>
      </trkpt>
      <trkpt lat="47.89682" lon="6.93907">
        <ele>913</ele>
        <time>2018-08-13T11:08:17Z</time>
      </trkpt>
      <trkpt lat="47.89694" lon="6.93889">
        <ele>913</ele>
        <time>2018-08-13T11:09:17Z</time>
      </trkpt>
      <trkpt lat="47.89678" lon="6.93782">
        <ele>927</ele>
        <time>2018-08-13T11:10:17Z</time>
      </trkpt>
      <trkpt lat="47.89655" lon="6.93736">
        <ele>938</ele>
        <time>2018-08-13T11:11:17Z</time>
      </trkpt>
      <trkpt lat="47.8963" lon="6.93666">
        <ele>950</ele>
        <time>2018-08-13T11:12:17Z</time>
      </trkpt>
      <trkpt lat="47.89612" lon="6.93593">
        <ele>960</ele>
        <time>2018-08-13T11:13:17Z</time>
      </trkpt>
      <trkpt lat="47.89596" lon="6.93503">
        <ele>964</ele>
        <time>2018-08-13T11:14:17Z</time>
      </trkpt>
      <trkpt lat="47.89597" lon="6.9339">
        <ele>969</ele>
        <time>2018-08-13T11:15:17Z</time>
      </trkpt>
      <trkpt lat="47.89603" lon="6.93354">
        <ele>966</ele>
        <time>2018-08-13T11:16:17Z</time>
      </trkpt>
      <trkpt lat="47.89594" lon="6.93331">
        <ele>970</ele>
        <time>2018-08-13T11:17:17Z</time>
      </trkpt>
      <trkpt lat="47.8957" lon="6.93284">
        <ele>978</ele>
        <time>2018-08-13T11:18:17Z</time>
      </trkpt>
      <trkpt lat="47.89549" lon="6.93245">
        <ele>984</ele>
        <time>2018-08-13T11:19:17Z</time>
      </trkpt>
      <trkpt lat="47.89539" lon="6.93211">
        <ele>988</ele>
        <time>2018-08-13T11:20:17Z</time>
      </trkpt>
      <trkpt lat="47.89529" lon="6.93148">
        <ele>991</ele>
        <time>2018-08-13T11:21:17Z</time>
      </trkpt>
      <trkpt lat="47.89528" lon="6.93098">
        <ele>994</ele>
        <time>2018-08-13T11:22:17Z</time>
      </trkpt>
      <trkpt lat="47.89528" lon="6.93011">
        <ele>1000</ele>
        <time>2018-08-13T11:23:17Z</time>
      </trkpt>
      <trkpt lat="47.89525" lon="6.92957">
        <ele>1004</ele>
        <time>2018-08-13T11:24:17Z</time>
      </trkpt>
      <trkpt lat="47.89512" lon="6.92905">
        <ele>1008</ele>
        <time>2018-08-13T11:25:17Z</time>
      </trkpt>
      <trkpt lat="47.89496" lon="6.92868">
        <ele>1008</ele>
        <time>2018-08-13T11:26:17Z</time>
      </trkpt>
      <trkpt lat="47.89477" lon="6.92843">
        <ele>1003</ele>
        <time>2018-08-13T11:27:17Z</time>
      </trkpt>
      <trkpt lat="47.89489" lon="6.92831">
        <ele>1005</ele>
        <time>2018-08-13T11:28:17Z</time>
      </trkpt>
      <trkpt lat="47.89508" lon="6.92814">
        <ele>1008</ele>
        <time>2018-08-13T11:29:17Z</time>
      </trkpt>
      <trkpt lat="47.8952" lon="6.92795">
        <ele>1008</ele>
        <time>2018-08-13T11:30:17Z</time>
      </trkpt>
      <trkpt lat="47.89619" lon="6.92693">
        <ele>1007</ele>
        <time>2018-08-13T11:31:17Z</time>
      </trkpt>
      <trkpt lat="47.89655" lon="6.92643">
        <ele>1006</ele>
        <time>2018-08-13T11:32:17Z</time>
      </trkpt>
      <trkpt lat="47.89692" lon="6.926">
        <ele>1001</ele>
        <time>2018-08-13T11:33:17Z</time>
      </trkpt>
      <trkpt lat="47.89756" lon="6.92514">
        <ele>1001</ele>
        <time>2018-08-13T11:34:17Z</time>
      </trkpt>
      <trkpt lat="47.89775" lon="6.92497">
        <ele>1001</ele>
        <time>2018-08-13T11:35:17Z</time>
      </trkpt>
      <trkpt lat="47.89834" lon="6.92453">
        <ele>995</ele>
        <time>2018-08-13T11:36:17Z</time>
      </trkpt>
      <trkpt lat="47.89895" lon="6.92414">
        <ele>996</ele>
        <time>2018-08-13T11:37:17Z</time>
      </trkpt>
      <trkpt lat="47.89928" lon="6.92376">
        <ele>997</ele>
        <time>2018-08-13T11:38:17Z</time>
      </trkpt>
      <trkpt lat="47.89934" lon="6.92339">
        <ele>1004</ele>
        <time>2018-08-13T11:39:17Z</time>
      </trkpt>
      <trkpt lat="47.89939" lon="6.92307">
        <ele>1013</ele>
        <time>2018-08-13T11:40:17Z</time>
      </trkpt>
      <trkpt lat="47.89963" lon="6.92246">
        <ele>1020</ele>
        <time>2018-08-13T11:41:17Z</time>
      </trkpt>
      <trkpt lat="47.90008" lon="6.92194">
        <ele>1014</ele>
        <time>2018-08-13T11:42:17Z</time>
      </trkpt>
      <trkpt lat="47.90024" lon="6.92156">
        <ele>1023</ele>
        <time>2018-08-13T11:43:17Z</time>
      </trkpt>
      <trkpt lat="47.9005" lon="6.9211">
        <ele>1032</ele>
        <time>2018-08-13T11:44:17Z</time>
      </trkpt>
      <trkpt lat="47.90076" lon="6.92079">
        <ele>1036</ele>
        <time>2018-08-13T11:45:17Z</time>
      </trkpt>
      <trkpt lat="47.9013" lon="6.92059">
        <ele>1045</ele>
        <time>2018-08-13T11:46:17Z</time>
      </trkpt>
      <trkpt lat="47.90171" lon="6.92105">
        <ele>1037</ele>
        <time>2018-08-13T11:47:17Z</time>
      </trkpt>
      <trkpt lat="47.90202" lon="6.92145">
        <ele>1040</ele>
        <time>2018-08-13T11:48:17Z</time>
      </trkpt>
      <trkpt lat="47.90219" lon="6.92179">
        <ele>1041</ele>
        <time>2018-08-13T11:49:17Z</time>
      </trkpt>
      <trkpt lat="47.90241" lon="6.92207">
        <ele>1047</ele>
        <time>2018-08-13T11:50:17Z</time>
      </trkpt>
      <trkpt lat="47.90247" lon="6.9221">
        <ele>1048</ele>
        <time>2018-08-13T11:51:17Z</time>
      </trkpt>
      <trkpt lat="47.90256" lon="6.92209">
        <ele>1052</ele>
        <time>2018-08-13T11:52:17Z</time>
      </trkpt>
      <trkpt lat="47.90318" lon="6.92197">
        <ele>1075</ele>
        <time>2018-08-13T11:53:17Z</time>
      </trkpt>
      <trkpt lat="47.9034" lon="6.9221">
        <ele>1082</ele>
        <time>2018-08-13T11:54:17Z</time>
      </trkpt>
      <trkpt lat="47.90352" lon="6.9224">
        <ele>1084</ele>
        <time>2018-08-13T11:55:17Z</time>
      </trkpt>
      <trkpt lat="47.90415" lon="6.92277">
        <ele>1105</ele>
        <time>2018-08-13T11:56:17Z</time>
      </trkpt>
      <trkpt lat="47.90476" lon="6.92315">
        <ele>1118</ele>
        <time>2018-08-13T11:57:17Z</time>
      </trkpt>
      <trkpt lat="47.905" lon="6.92352">
        <ele>1123</ele>
        <time>2018-08-13T11:58:17Z</time>
      </trkpt>
      <trkpt lat="47.90534" lon="6.92378">
        <ele>1132</ele>
        <time>2018-08-13T11:59:17Z</time>
      </trkpt>
      <trkpt lat="47.90566" lon="6.92379">
        <ele>1144</ele>
        <time>2018-08-13T12:00:17Z</time>
      </trkpt>
      <trkpt lat="47.90551" lon="6.92321">
        <ele>1138</ele>
        <time>2018-08-13T12:01:17Z</time>
      </trkpt>
      <trkpt lat="47.90541" lon="6.92274">
        <ele>1139</ele>
        <time>2018-08-13T12:02:17Z</time>
      </trkpt>
      <trkpt lat="47.90526" lon="6.92262">
        <ele>1141</ele>
        <time>2018-08-13T12:03:17Z</time>
      </trkpt>
      <trkpt lat="47.90485" lon="6.92213">
        <ele>1143</ele>
        <time>2018-08-13T12:04:17Z</time>
      </trkpt>
      <trkpt lat="47.9046" lon="6.92175">
        <ele>1143</ele>
        <time>2018-08-13T12:05:17Z</time>
      </trkpt>
      <trkpt lat="47.90448" lon="6.92143">
        <ele>1141</ele>
        <time>2018-08-13T12:06:17Z</time>
      </trkpt>
      <trkpt lat="47.90442" lon="6.92116">
        <ele>1141</ele>
        <time>2018-08-13T12:07:17Z</time>
      </trkpt>
      <trkpt lat="47.9044" lon="6.92107">
        <ele>1141</ele>
        <time>2018-08-13T12:08:17Z</time>
      </trkpt>
      <trkpt lat="47.90433" lon="6.92059">
        <ele>1144</ele>
        <time>2018-08-13T12:09:17Z</time>
      </trkpt>
      <trkpt lat="47.90404" lon="6.91994">
        <ele>1149</ele>
        <time>2018-08-13T12:10:17Z</time>
      </trkpt>
      <trkpt lat="47.90395" lon="6.91987">
        <ele>1147</ele>
        <time>2018-08-13T12:11:17Z</time>
      </trkpt>
      <trkpt lat="47.90385" lon="6.91965">
        <ele>1147</ele>
        <time>2018-08-13T12:12:17Z</time>
      </trkpt>
      <trkpt lat="47.90371" lon="6.91917">
        <ele>1152</ele>
        <time>2018-08-13T12:13:17Z</time>
      </trkpt>
      <trkpt lat="47.90359" lon="6.91881">
        <ele>1153</ele>
        <time>2018-08-13T12:14:17Z</time>
      </trkpt>
      <trkpt lat="47.90339" lon="6.91837">
        <ele>1156</ele>
        <time>2018-08-13T12:15:17Z</time>
      </trkpt>
      <trkpt lat="47.90305" lon="6.9177">
        <ele>1164</ele>
        <time>2018-08-13T12:16:17Z</time>
      </trkpt>
      <trkpt lat="47.90227" lon="6.91698">
        <ele>1172</ele>
        <time>2018-08-13T12:17:17Z</time>
      </trkpt>
      <trkpt lat="47.90216" lon="6.91673">
        <ele>1175</ele>
        <time>2018-08-13T12:18:17Z</time>
      </trkpt>
      <trkpt lat="47.90205" lon="6.91672">
        <ele>1177</ele>
        <time>2018-08-13T12:19:17Z</time>
      </trkpt>
      <trkpt lat="47.90134" lon="6.91699">
        <ele>1173</ele>
        <time>2018-08-13T12:20:17Z</time>
      </trkpt>
      <trkpt lat="47.90081" lon="6.91764">
        <ele>1169</ele>
        <time>2018-08-13T12:21:17Z</time>
      </trkpt>
      <trkpt lat="47.89967" lon="6.91771">
        <ele>1164</ele>
        <time>2018-08-13T12:22:17Z</time>
      </trkpt>
      <trkpt lat="47.89958" lon="6.91793">
        <ele>1164</ele>
        <time>2018-08-13T12:23:17Z</time>
      </trkpt>
      <trkpt lat="47.89945" lon="6.91818">
        <ele>1165</ele>
        <time>2018-08-13T12:24:17Z</time>
      </trkpt>
      <trkpt lat="47.89892" lon="6.91897">
        <ele>1153</ele>
        <time>2018-08-13T12:25:17Z</time>
      </trkpt>
      <trkpt lat="47.8987" lon="6.91924">
        <ele>1151</ele>
        <time>2018-08-13T12:26:17Z</time>
      </trkpt>
      <trkpt lat="47.89852" lon="6.91964">
        <ele>1149</ele>
        <time>2018-08-13T12:27:17Z</time>
      </trkpt>
      <trkpt lat="47.89831" lon="6.92012">
        <ele>1147</ele>
        <time>2018-08-13T12:28:17Z</time>
      </trkpt>
      <trkpt lat="47.89824" lon="6.92035">
        <ele>1142</ele>
        <time>2018-08-13T12:29:17Z</time>
      </trkpt>
      <trkpt lat="47.89813" lon="6.9205">
        <ele>1139</ele>
        <time>2018-08-13T12:30:17Z</time>
      </trkpt>
      <trkpt lat="47.89808" lon="6.92067">
        <ele>1136</ele>
        <time>2018-08-13T12:31:17Z</time>
      </trkpt>
      <trkpt lat="47.898" lon="6.92074">
        <ele>1135</ele>
        <time>2018-08-13T12:32:17Z</time>
      </trkpt>
      <trkpt lat="47.89784" lon="6.92109">
        <ele>1128</ele>
        <time>2018-08-13T12:33:17Z</time>
      </trkpt>
      <trkpt lat="47.89767" lon="6.9215">
        <ele>1120</ele>
        <time>2018-08-13T12:34:17Z</time>
      </trkpt>
      <trkpt lat="47.89762" lon="6.9216">
        <ele>1118</ele>
        <time>2018-08-13T12:35:17Z</time>
      </trkpt>
      <trkpt lat="47.89753" lon="6.92182">
        <ele>1114</ele>
        <time>2018-08-13T12:36:17Z</time>
      </trkpt>
      <trkpt lat="47.89744" lon="6.9219">
        <ele>1113</ele>
        <time>2018-08-13T12:37:17Z</time>
      </trkpt>
      <trkpt lat="47.89738" lon="6.92208">
        <ele>1111</ele>
        <time>2018-08-13T12:38:17Z</time>
      </trkpt>
      <trkpt lat="47.89726" lon="6.92248">
        <ele>1104</ele>
        <time>2018-08-13T12:39:17Z</time>
      </trkpt>
      <trkpt lat="47.89692" lon="6.92325">
        <ele>1093</ele>
        <time>2018-08-13T12:40:17Z</time>
      </trkpt>
      <trkpt lat="47.89645" lon="6.92422">
        <ele>1076</ele>
        <time>2018-08-13T12:41:17Z</time>
      </trkpt>
      <trkpt lat="47.89597" lon="6.92503">
        <ele>1054</ele>
        <time>2018-08-13T12:42:17Z</time>
      </trkpt>
      <trkpt lat="47.8959" lon="6.9251">
        <ele>1053</ele>
        <time>2018-08-13T12:43:17Z</time>
      </trkpt>
      <trkpt lat="47.89552" lon="6.92532">
        <ele>1037</ele>
        <time>2018-08-13T12:44:17Z</time>
      </trkpt>
      <trkpt lat="47.89495" lon="6.9278">
        <ele>1007</ele>
        <time>2018-08-13T12:45:17Z</time>
      </trkpt>
      <trkpt lat="47.89466" lon="6.92881">
        <ele>1001</ele>
        <time>2018-08-13T12:46:17Z</time>
      </trkpt>
      <trkpt lat="47.89459" lon="6.92882">
        <ele>1000</ele>
        <time>2018-08-13T12:47:17Z</time>
      </trkpt>
      <trkpt lat="47.89435" lon="6.92947">
        <ele>996</ele>
        <time>2018-08-13T12:48:17Z</time>
      </trkpt>
      <trkpt lat="47.89426" lon="6.92932">
        <ele>994</ele>
        <time>2018-08-13T12:49:17Z</time>
      </trkpt>
      <trkpt lat="47.89414" lon="6.92881">
        <ele>990</ele>
        <time>2018-08-13T12:50:17Z</time>
      </trkpt>
      <trkpt lat="47.89403" lon="6.92816">
        <ele>982</ele>
        <time>2018-08-13T12:51:17Z</time>
      </trkpt>
      <trkpt lat="47.8941" lon="6.92771">
        <ele>980</ele>
        <time>2018-08-13T12:52:17Z</time>
      </trkpt>
      <trkpt lat="47.89413" lon="6.92702">
        <ele>975</ele>
        <time>2018-08-13T12:53:17Z</time>
      </trkpt>
      <trkpt lat="47.8941" lon="6.92618">
        <ele>969</ele>
        <time>2018-08-13T12:54:17Z</time>
      </trkpt>
      <trkpt lat="47.89401" lon="6.9256">
        <ele>966</ele>
        <time>2018-08-13T12:55:17Z</time>
      </trkpt>
      <trkpt lat="47.89391" lon="6.9251">
        <ele>966</ele>
        <time>2018-08-13T12:56:17Z</time>
      </trkpt>
      <trkpt lat="47.89386" lon="6.92484">
        <ele>969</ele>
        <time>2018-08-13T12:57:17Z</time>
      </trkpt>
      <trkpt lat="47.89377" lon="6.9248">
        <ele>966</ele>
        <time>2018-08-13T12:58:17Z</time>
      </trkpt>
      <trkpt lat="47.89381" lon="6.92513">
        <ele>961</ele>
        <time>2018-08-13T12:59:17Z</time>
      </trkpt>
      <trkpt lat="47.89383" lon="6.92566">
        <ele>956</ele>
        <time>2018-08-13T13:00:17Z</time>
      </trkpt>
      <trkpt lat="47.89381" lon="6.92623">
        <ele>955</ele>
        <time>2018-08-13T13:01:17Z</time>
      </trkpt>
      <trkpt lat="47.8937" lon="6.92677">
        <ele>952</ele>
        <time>2018-08-13T13:02:17Z</time>
      </trkpt>
      <trkpt lat="47.89362" lon="6.92704">
        <ele>952</ele>
        <time>2018-08-13T13:03:17Z</time>
      </trkpt>
      <trkpt lat="47.89325" lon="6.92827">
        <ele>949</ele>
        <time>2018-08-13T13:04:17Z</time>
      </trkpt>
      <trkpt lat="47.89319" lon="6.92859">
        <ele>947</ele>
        <time>2018-08-13T13:05:17Z</time>
      </trkpt>
      <trkpt lat="47.89322" lon="6.92882">
        <ele>950</ele>
        <time>2018-08-13T13:06:17Z</time>
      </trkpt>
      <trkpt lat="47.89319" lon="6.92903">
        <ele>949</ele>
        <time>2018-08-13T13:07:17Z</time>
      </trkpt>
      <trkpt lat="47.89308" lon="6.92953">
        <ele>945</ele>
        <time>2018-08-13T13:08:17Z</time>
      </trkpt>
      <trkpt lat="47.89297" lon="6.92988">
        <ele>940</ele>
        <time>2018-08-13T13:09:17Z</time>
      </trkpt>
      <trkpt lat="47.89281" lon="6.93028">
        <ele>936</ele>
        <time>2018-08-13T13:10:17Z</time>
      </trkpt>
      <trkpt lat="47.89227" lon="6.93094">
        <ele>922</ele>
        <time>2018-08-13T13:11:17Z</time>
      </trkpt>
      <trkpt lat="47.89211" lon="6.93111">
        <ele>918</ele>
        <time>2018-08-13T13:12:17Z</time>
      </trkpt>
      <trkpt lat="47.89191" lon="6.93158">
        <ele>919</ele>
        <time>2018-08-13T13:13:17Z</time>
      </trkpt>
      <trkpt lat="47.89161" lon="6.93195">
        <ele>912</ele>
        <time>2018-08-13T13:14:17Z</time>
      </trkpt>
      <trkpt lat="47.8915" lon="6.93214">
        <ele>910</ele>
        <time>2018-08-13T13:15:17Z</time>
      </trkpt>
      <trkpt lat="47.89137" lon="6.93226">
        <ele>906</ele>
        <time>2018-08-13T13:16:17Z</time>
      </trkpt>
      <trkpt lat="47.89119" lon="6.93258">
        <ele>903</ele>
        <time>2018-08-13T13:17:17Z</time>
      </trkpt>
      <trkpt lat="47.89104" lon="6.93287">
        <ele>899</ele>
        <time>2018-08-13T13:18:17Z</time>
      </trkpt>
      <trkpt lat="47.891" lon="6.93304">
        <ele>898</ele>
        <time>2018-08-13T13:19:17Z</time>
      </trkpt>
      <trkpt lat="47.89103" lon="6.93354">
        <ele>899</ele>
        <time>2018-08-13T13:20:17Z</time>
      </trkpt>
      <trkpt lat="47.891" lon="6.93367">
        <ele>896</ele>
        <time>2018-08-13T13:21:17Z</time>
      </trkpt>
      <trkpt lat="47.89093" lon="6.93402">
        <ele>890</ele>
        <time>2018-08-13T13:22:17Z</time>
      </trkpt>
      <trkpt lat="47.89093" lon="6.93469">
        <ele>876</ele>
        <time>2018-08-13T13:23:17Z</time>
      </trkpt>
      <trkpt lat="47.89095" lon="6.93531">
        <ele>865</ele>
        <time>2018-08-13T13:24:17Z</time>
      </trkpt>
      <trkpt lat="47.89093" lon="6.93562">
        <ele>860</ele>
        <time>2018-08-13T13:25:17Z</time>
      </trkpt>
      <trkpt lat="47.89077" lon="6.93621">
        <ele>844</ele>
        <time>2018-08-13T13:26:17Z</time>
      </trkpt>
      <trkpt lat="47.89077" lon="6.93646">
        <ele>841</ele>
        <time>2018-08-13T13:27:17Z</time>
      </trkpt>
      <trkpt lat="47.89089" lon="6.93696">
        <ele>841</ele>
        <time>2018-08-13T13:28:17Z</time>
      </trkpt>
      <trkpt lat="47.89088" lon="6.93726">
        <ele>837</ele>
        <time>2018-08-13T13:29:17Z</time>
      </trkpt>
      <trkpt lat="47.89095" lon="6.93803">
        <ele>836</ele>
        <time>2018-08-13T13:30:17Z</time>
      </trkpt>
      <trkpt lat="47.89089" lon="6.93851">
        <ele>834</ele>
        <time>2018-08-13T13:31:17Z</time>
      </trkpt>
      <trkpt lat="47.8908" lon="6.93883">
        <ele>833</ele>
        <time>2018-08-13T13:32:17Z</time>
      </trkpt>
      <trkpt lat="47.89067" lon="6.939">
        <ele>828</ele>
        <time>2018-08-13T13:33:17Z</time>
      </trkpt>
      <trkpt lat="47.89052" lon="6.93962">
        <ele>827</ele>
        <time>2018-08-13T13:34:17Z</time>
      </trkpt>
      <trkpt lat="47.89046" lon="6.93998">
        <ele>829</ele>
        <time>2018-08-13T13:35:17Z</time>
      </trkpt>
      <trkpt lat="47.89038" lon="6.94026">
        <ele>829</ele>
        <time>2018-08-13T13:36:17Z</time>
      </trkpt>
      <trkpt lat="47.89031" lon="6.94081">
        <ele>833</ele>
        <time>2018-08-13T13:37:17Z</time>
      </trkpt>
      <trkpt lat="47.89026" lon="6.94109">
        <ele>830</ele>
        <time>2018-08-13T13:38:17Z</time>
      </trkpt>
      <trkpt lat="47.89021" lon="6.94159">
        <ele>826</ele>
        <time>2018-08-13T13:39:17Z</time>
      </trkpt>
      <trkpt lat="47.89036" lon="6.94186">
        <ele>825</ele>
        <time>2018-08-13T13:40:17Z</time>
      </trkpt>
      <trkpt lat="47.89093" lon="6.94217">
        <ele>834</ele>
        <time>2018-08-13T13:41:17Z</time>
      </trkpt>
      <trkpt lat="47.89109" lon="6.94233">
        <ele>837</ele>
        <time>2018-08-13T13:42:17Z</time>
      </trkpt>
      <trkpt lat="47.89117" lon="6.94288">
        <ele>831</ele>
        <time>2018-08-13T13:43:17Z</time>
      </trkpt>
      <trkpt lat="47.89122" lon="6.94393">
        <ele>822</ele>
        <time>2018-08-13T13:44:17Z</time>
      </trkpt>
      <trkpt lat="47.89132" lon="6.94464">
        <ele>820</ele>
        <time>2018-08-13T13:45:17Z</time>
      </trkpt>
      <trkpt lat="47.89147" lon="6.94532">
        <ele>820</ele>
        <time>2018-08-13T13:46:17Z</time>
      </trkpt>
      <trkpt lat="47.89156" lon="6.94594">
        <ele>816</ele>
        <time>2018-08-13T13:47:17Z</time>
      </trkpt>
      <trkpt lat="47.89163" lon="6.9462">
        <ele>818</ele>
        <time>2018-08-13T13:48:17Z</time>
      </trkpt>
      <trkpt lat="47.89168" lon="6.94673">
        <ele>816</ele>
        <time>2018-08-13T13:49:17Z</time>
      </trkpt>
      <trkpt lat="47.89169" lon="6.94721">
        <ele>813</ele>
        <time>2018-08-13T13:50:17Z</time>
      </trkpt>
      <trkpt lat="47.89161" lon="6.94759">
        <ele>809</ele>
        <time>2018-08-13T13:51:17Z</time>
      </trkpt>
      <trkpt lat="47.89149" lon="6.94807">
        <ele>802</ele>
        <time>2018-08-13T13:52:17Z</time>
      </trkpt>
      <trkpt lat="47.89134" lon="6.94847">
        <ele>795</ele>
        <time>2018-08-13T13:53:17Z</time>
      </trkpt>
      <trkpt lat="47.89117" lon="6.94898">
        <ele>790</ele>
        <time>2018-08-13T13:54:17Z</time>
      </trkpt>
      <trkpt lat="47.89101" lon="6.94919">
        <ele>786</ele>
        <time>2018-08-13T13:55:17Z</time>
      </trkpt>
      <trkpt lat="47.89059" lon="6.94985">
        <ele>776</ele>
        <time>2018-08-13T13:56:17Z</time>
      </trkpt>
      <trkpt lat="47.8905" lon="6.94993">
        <ele>774</ele>
        <time>2018-08-13T13:57:17Z</time>
      </trkpt>
      <trkpt lat="47.89064" lon="6.94959">
        <ele>776</ele>
        <time>2018-08-13T13:58:17Z</time>
      </trkpt>
      <trkpt lat="47.8907" lon="6.9494">
        <ele>777</ele>
        <time>2018-08-13T13:59:17Z</time>
      </trkpt>
      <trkpt lat="47.89045" lon="6.9495">
        <ele>766</ele>
        <time>2018-08-13T14:00:17Z</time>
      </trkpt>
      <trkpt lat="47.89022" lon="6.94969">
        <ele>758</ele>
        <time>2018-08-13T14:01:17Z</time>
      </trkpt>
      <trkpt lat="47.88963" lon="6.95054">
        <ele>737</ele>
        <time>2018-08-13T14:02:17Z</time>
      </trkpt>
      <trkpt lat="47.88952" lon="6.95069">
        <ele>732</ele>
        <time>2018-08-13T14:03:17Z</time>
      </trkpt>
      <trkpt lat="47.88922" lon="6.95203">
        <ele>707</ele>
        <time>2018-08-13T14:04:17Z</time>
      </trkpt>
      <trkpt lat="47.88932" lon="6.95281">
        <ele>701</ele>
        <time>2018-08-13T14:05:17Z</time>
      </trkpt>
      <trkpt lat="47.8893" lon="6.95337">
        <ele>688</ele>
        <time>2018-08-13T14:06:17Z</time>
      </trkpt>
      <trkpt lat="47.88949" lon="6.95379">
        <ele>685</ele>
        <time>2018-08-13T14:07:17Z</time>
      </trkpt>
      <trkpt lat="47.88963" lon="6.95405">
        <ele>683</ele>
        <time>2018-08-13T14:08:17Z</time>
      </trkpt>
      <trkpt lat="47.88985" lon="6.95432">
        <ele>681</ele>
        <time>2018-08-13T14:09:17Z</time>
      </trkpt>
      <trkpt lat="47.89005" lon="6.95444">
        <ele>682</ele>
        <time>2018-08-13T14:10:17Z</time>
      </trkpt>
      <trkpt lat="47.88975" lon="6.95451">
        <ele>670</ele>
        <time>2018-08-13T14:11:17Z</time>
      </trkpt>
      <trkpt lat="47.88945" lon="6.95435">
        <ele>666</ele>
        <time>2018-08-13T14:12:17Z</time>
      </trkpt>
      <trkpt lat="47.88918" lon="6.95402">
        <ele>667</ele>
        <time>2018-08-13T14:13:17Z</time>
      </trkpt>
      <trkpt lat="47.88904" lon="6.95395">
        <ele>661</ele>
        <time>2018-08-13T14:14:17Z</time>
      </trkpt>
      <trkpt lat="47.88921" lon="6.95449">
        <ele>652</ele>
        <time>2018-08-13T14:15:17Z</time>
      </trkpt>
      <trkpt lat="47.88957" lon="6.95473">
        <ele>655</ele>
        <time>2018-08-13T14:16:17Z</time>
      </trkpt>
      <trkpt lat="47.88978" lon="6.95492">
        <ele>654</ele>
        <time>2018-08-13T14:17:17Z</time>
      </trkpt>
      <trkpt lat="47.88931" lon="6.95493">
        <ele>639</ele>
        <time>2018-08-13T14:18:17Z</time>
      </trkpt>
      <trkpt lat="47.88958" lon="6.95529">
        <ele>635</ele>
        <time>2018-08-13T14:19:17Z</time>
      </trkpt>
      <trkpt lat="47.88907" lon="6.95521">
        <ele>621</ele>
        <time>2018-08-13T14:20:17Z</time>
      </trkpt>
      <trkpt lat="47.8887" lon="6.95474">
        <ele>619</ele>
        <time>2018-08-13T14:21:17Z</time>
      </trkpt>
      <trkpt lat="47.88941" lon="6.95625">
        <ele>598</ele>
        <time>2018-08-13T14:22:17Z</time>
      </trkpt>
      <trkpt lat="47.88962" lon="6.95673">
        <ele>593</ele>
        <time>2018-08-13T14:23:17Z</time>
      </trkpt>
      <trkpt lat="47.88961" lon="6.95707">
        <ele>585</ele>
        <time>2018-08-13T14:24:17Z</time>
      </trkpt>
      <trkpt lat="47.88941" lon="6.95686">
        <ele>581</ele>
        <time>2018-08-13T14:25:17Z</time>
      </trkpt>
      <trkpt lat="47.88917" lon="6.95666">
        <ele>574</ele>
        <time>2018-08-13T14:26:17Z</time>
      </trkpt>
      <trkpt lat="47.88884" lon="6.95613">
        <ele>580</ele>
        <time>2018-08-13T14:27:17Z</time>
      </trkpt>
      <trkpt lat="47.88801" lon="6.9553">
        <ele>566</ele>
        <time>2018-08-13T14:28:17Z</time>
      </trkpt>
      <trkpt lat="47.88778" lon="6.95493">
        <ele>565</ele>
        <time>2018-08-13T14:29:17Z</time>
      </trkpt>
      <trkpt lat="47.88753" lon="6.95442">
        <ele>567</ele>
        <time>2018-08-13T14:30:17Z</time>
      </trkpt>
      <trkpt lat="47.88737" lon="6.95409">
        <ele>566</ele>
        <time>2018-08-13T14:31:17Z</time>
      </trkpt>
      <trkpt lat="47.88724" lon="6.95401">
        <ele>559</ele>
        <time>2018-08-13T14:32:17Z</time>
      </trkpt>
      <trkpt lat="47.88691" lon="6.95403">
        <ele>537</ele>
        <time>2018-08-13T14:33:17Z</time>
      </trkpt>
      <trkpt lat="47.88677" lon="6.95398">
        <ele>529</ele>
        <time>2018-08-13T14:34:17Z</time>
      </trkpt>
      <trkpt lat="47.88674" lon="6.95377">
        <ele>533</ele>
        <time>2018-08-13T14:35:17Z</time>
      </trkpt>
      <trkpt lat="47.88679" lon="6.95308">
        <ele>550</ele>
        <time>2018-08-13T14:36:17Z</time>
      </trkpt>
      <trkpt lat="47.88664" lon="6.95289">
        <ele>544</ele>
        <time>2018-08-13T14:37:17Z</time>
      </trkpt>
      <trkpt lat="47.88653" lon="6.95338">
        <ele>529</ele>
        <time>2018-08-13T14:38:17Z</time>
      </trkpt>
      <trkpt lat="47.88634" lon="6.95327">
        <ele>519</ele>
        <time>2018-08-13T14:39:17Z</time>
      </trkpt>
      <trkpt lat="47.88646" lon="6.95378">
        <ele>516</ele>
        <time>2018-08-13T14:40:17Z</time>
      </trkpt>
      <trkpt lat="47.88621" lon="6.95378">
        <ele>501</ele>
        <time>2018-08-13T14:41:17Z</time>
      </trkpt>
      <trkpt lat="47.88607" lon="6.95343">
        <ele>500</ele>
        <time>2018-08-13T14:42:17Z</time>
      </trkpt>
      <trkpt lat="47.88595" lon="6.95372">
        <ele>487</ele>
        <time>2018-08-13T14:43:17Z</time>
      </trkpt>
      <trkpt lat="47.88577" lon="6.95356">
        <ele>480</ele>
        <time>2018-08-13T14:44:17Z</time>
      </trkpt>
      <trkpt lat="47.88588" lon="6.95388">
        <ele>479</ele>
        <time>2018-08-13T14:45:17Z</time>
      </trkpt>
      <trkpt lat="47.88583" lon="6.9541">
        <ele>472</ele>
        <time>2018-08-13T14:46:17Z</time>
      </trkpt>
      <trkpt lat="47.88562" lon="6.95411">
        <ele>467</ele>
        <time>2018-08-13T14:47:17Z</time>
      </trkpt>
      <trkpt lat="47.8856" lon="6.9542">
        <ele>465</ele>
        <time>2018-08-13T14:48:17Z</time>
      </trkpt>
      <trkpt lat="47.88561" lon="6.95433">
        <ele>464</ele>
        <time>2018-08-13T14:49:17Z</time>
      </trkpt>
      <trkpt lat="47.88572" lon="6.9544">
        <ele>466</ele>
        <time>2018-08-13T14:50:17Z</time>
      </trkpt>
      <trkpt lat="47.88586" lon="6.95486">
        <ele>463</ele>
        <time>2018-08-13T14:51:17Z</time>
      </trkpt>
      <trkpt lat="47.88582" lon="6.95517">
        <ele>458</ele>
        <time>2018-08-13T14:52:17Z</time>
      </trkpt>
      <trkpt lat="47.88568" lon="6.95499">
        <ele>458</ele>
        <time>2018-08-13T14:53:17Z</time>
      </trkpt>
      <trkpt lat="47.88544" lon="6.95504">
        <ele>455</ele>
        <time>2018-08-13T14:54:17Z</time>
      </trkpt>
      <trkpt lat="47.88504" lon="6.95528">
        <ele>449</ele>
        <time>2018-08-13T14:55:17Z</time>
      </trkpt>
      <trkpt lat="47.88472" lon="6.9553">
        <ele>449</ele>
        <time>2018-08-13T14:56:17Z</time>
      </trkpt>
      <trkpt lat="47.88448" lon="6.9554">
        <ele>449</ele>
        <time>2018-08-13T14:57:17Z</time>
      </trkpt>
      <trkpt lat="47.88421" lon="6.9557">
        <ele>449</ele>
        <time>2018-08-13T14:58:17Z</time>
      </trkpt>
      <trkpt lat="47.88356" lon="6.95586">
        <ele>450</ele>
        <time>2018-08-13T14:59:17Z</time>
      </trkpt>
      <trkpt lat="47.88284" lon="6.95622">
        <ele>454</ele>
        <time>2018-08-13T15:00:17Z</time>
      </trkpt>
      <trkpt lat="47.88241" lon="6.95485">
        <ele>456</ele>
        <time>2018-08-13T15:01:17Z</time>
      </trkpt>
      <trkpt lat="47.88242" lon="6.95458">
        <ele>455</ele>
        <time>2018-08-13T15:02:17Z</time>
      </trkpt>
      <trkpt lat="47.88224" lon="6.9544">
        <ele>457</ele>
        <time>2018-08-13T15:03:17Z</time>
      </trkpt>
    </trkseg>
  </trk>
</gpx>